Time;durP1;ratioP1;P1;durP2;ratioP2;P2;SDS_P1;SDS_P2;PMS_P1;PMS_P2;Temp;Humidity;BMP_temperature;BMP_pressure;BME280_temperature;BME280_humidity;BME280_pressure;Samples;Min_cycle;Max_cycle;Signal;HPM_P1;HPM_P2
2022/03/15 00:01:17;;;;;;;12.55;6.00;;;11.10;97.50;;;;;;4992239;28;20225;-42
2022/03/15 00:03:49;;;;;;;9.57;5.72;;;11.10;97.50;;;;;;4987589;28;20309;-42
2022/03/15 00:06:16;;;;;;;11.95;5.80;;;11.10;97.50;;;;;;4972821;28;20583;-42
2022/03/15 00:08:48;;;;;;;13.47;6.13;;;11.10;97.60;;;;;;4995771;28;20220;-42
2022/03/15 00:11:15;;;;;;;11.40;5.83;;;11.00;97.50;;;;;;5008323;28;20197;-42
2022/03/15 00:13:43;;;;;;;12.55;6.55;;;11.00;97.50;;;;;;5009285;28;20206;-35
2022/03/15 00:16:13;;;;;;;11.10;6.45;;;11.00;97.60;;;;;;5005878;28;20206;-36
2022/03/15 00:18:41;;;;;;;9.93;6.13;;;11.00;97.60;;;;;;5004305;28;20241;-35
2022/03/15 00:21:10;;;;;;;15.67;7.70;;;11.00;97.60;;;;;;4983926;28;20209;-36
2022/03/15 00:23:42;;;;;;;11.97;6.53;;;11.00;97.60;;;;;;5006288;28;20592;-35
2022/03/15 00:26:12;;;;;;;11.90;6.73;;;11.00;97.60;;;;;;5008417;28;20625;-36
2022/03/15 00:28:39;;;;;;;10.60;6.37;;;11.00;97.60;;;;;;5002405;28;20221;-35
2022/03/15 00:31:14;;;;;;;11.90;6.80;;;11.00;97.60;;;;;;4989715;28;20241;-35
2022/03/15 00:33:42;;;;;;;14.10;6.90;;;11.00;97.60;;;;;;5007057;28;20606;-35
2022/03/15 00:36:14;;;;;;;12.50;6.87;;;11.00;97.60;;;;;;5007767;28;20640;-35
2022/03/15 00:38:43;;;;;;;13.33;7.17;;;11.00;97.60;;;;;;4988807;28;20198;-35
2022/03/15 00:41:10;;;;;;;15.50;7.10;;;11.00;97.60;;;;;;5001696;28;20208;-36
2022/03/15 00:43:40;;;;;;;12.83;7.10;;;11.00;97.60;;;;;;5005786;28;20588;-42
2022/03/15 00:46:10;;;;;;;12.50;6.77;;;10.90;97.70;;;;;;4999261;28;20704;-42
2022/03/15 00:48:40;;;;;;;11.00;6.47;;;10.90;97.70;;;;;;4996884;28;20197;-42
2022/03/15 00:51:07;;;;;;;13.80;6.80;;;10.90;97.60;;;;;;5005421;28;20230;-42
2022/03/15 00:53:34;;;;;;;11.83;6.80;;;10.90;97.70;;;;;;4990637;28;20787;-42
2022/03/15 00:56:02;;;;;;;14.50;6.90;;;10.90;97.70;;;;;;5008929;28;20703;-42
2022/03/15 00:58:29;;;;;;;10.57;6.80;;;10.90;97.70;;;;;;5008248;28;20221;-42
2022/03/15 01:01:01;;;;;;;14.23;6.53;;;10.90;97.70;;;;;;5007328;28;20572;-42
2022/03/15 01:03:28;;;;;;;13.10;6.67;;;10.90;97.70;;;;;;4997779;28;20218;-42
2022/03/15 01:05:57;;;;;;;14.33;6.77;;;10.90;97.70;;;;;;4987867;28;20230;-42
2022/03/15 01:08:25;;;;;;;12.03;6.53;;;10.90;97.80;;;;;;4988642;28;20206;-42
2022/03/15 01:11:00;;;;;;;14.67;6.30;;;10.80;97.70;;;;;;4998647;28;20222;-42
2022/03/15 01:13:29;;;;;;;12.40;6.83;;;10.80;97.70;;;;;;5007028;28;20200;-42
2022/03/15 01:15:59;;;;;;;10.85;6.63;;;10.80;97.70;;;;;;5007716;28;20587;-42
2022/03/15 01:18:27;;;;;;;10.10;6.10;;;10.80;97.70;;;;;;5008433;28;20237;-42
2022/03/15 01:20:54;;;;;;;12.37;6.53;;;10.80;97.80;;;;;;5003795;28;20301;-42
2022/03/15 01:23:22;;;;;;;10.40;5.77;;;10.80;97.70;;;;;;5007895;28;20236;-42
2022/03/15 01:25:49;;;;;;;15.45;6.15;;;10.70;97.70;;;;;;5007802;28;20220;-42
2022/03/15 01:28:16;;;;;;;12.10;6.00;;;10.70;97.70;;;;;;4999513;28;20229;-42
2022/03/15 01:30:43;;;;;;;10.20;6.70;;;10.70;97.80;;;;;;4982331;28;20516;-42
2022/03/15 01:33:11;;;;;;;12.80;6.07;;;10.70;97.80;;;;;;4998488;28;20569;-42
2022/03/15 01:35:43;;;;;;;10.63;6.33;;;10.70;97.80;;;;;;4993219;28;20205;-42
2022/03/15 01:38:10;;;;;;;10.60;5.93;;;10.70;97.80;;;;;;5006493;28;20633;-42
2022/03/15 01:40:41;;;;;;;9.33;5.97;;;10.70;97.80;;;;;;5007975;28;20259;-42
2022/03/15 01:43:15;;;;;;;11.20;5.90;;;10.70;97.80;;;;;;5006535;28;20248;-42
2022/03/15 01:45:45;;;;;;;11.17;5.93;;;10.70;97.80;;;;;;5004536;28;20672;-42
2022/03/15 01:48:17;;;;;;;13.77;6.13;;;10.60;97.80;;;;;;5007648;28;20229;-42
2022/03/15 01:50:44;;;;;;;11.53;6.10;;;10.60;97.80;;;;;;5007371;28;20299;-42
2022/03/15 01:53:16;;;;;;;13.43;6.33;;;10.60;97.80;;;;;;5006931;28;20265;-42
2022/03/15 01:55:45;;;;;;;10.17;6.10;;;10.60;98.10;;;;;;5006721;28;20666;-42
2022/03/15 01:58:12;;;;;;;11.40;6.50;;;10.60;97.80;;;;;;5003070;28;20232;-42
2022/03/15 02:00:39;;;;;;;10.83;6.47;;;10.50;97.80;;;;;;5004305;28;20279;-42
2022/03/15 02:03:09;;;;;;;8.10;5.80;;;10.50;97.80;;;;;;4990742;28;20284;-42
2022/03/15 02:05:39;;;;;;;12.27;6.23;;;10.60;97.80;;;;;;4999410;28;20233;-42
2022/03/15 02:08:14;;;;;;;13.63;6.10;;;10.50;97.80;;;;;;5001559;28;20206;-42
2022/03/15 02:10:46;;;;;;;10.77;6.10;;;10.50;97.90;;;;;;4994445;28;20217;-42
2022/03/15 02:13:13;;;;;;;13.07;6.17;;;10.50;97.80;;;;;;5006829;28;20221;-42
2022/03/15 02:15:43;;;;;;;12.03;6.60;;;10.50;97.80;;;;;;5006336;28;20228;-42
2022/03/15 02:18:10;;;;;;;13.00;7.30;;;10.50;97.80;;;;;;4998772;28;20214;-42
2022/03/15 02:20:37;;;;;;;14.13;6.90;;;10.50;97.80;;;;;;4982325;28;20679;-42
2022/03/15 02:23:12;;;;;;;11.90;7.00;;;10.50;97.80;;;;;;5006368;28;20261;-42
2022/03/15 02:25:40;;;;;;;10.80;6.60;;;10.50;97.80;;;;;;5006085;28;20213;-41
2022/03/15 02:28:07;;;;;;;12.90;7.13;;;10.50;97.90;;;;;;4993061;28;20206;-42
2022/03/15 02:30:39;;;;;;;12.20;7.00;;;10.50;97.90;;;;;;4993371;28;20225;-42
2022/03/15 02:33:08;;;;;;;12.60;6.70;;;10.40;97.80;;;;;;5007162;28;20498;-42
2022/03/15 02:35:38;;;;;;;12.17;6.90;;;10.50;97.90;;;;;;4984824;28;20297;-42
2022/03/15 02:38:08;;;;;;;11.00;6.43;;;10.40;97.80;;;;;;5003317;28;20202;-42
2022/03/15 02:40:38;;;;;;;11.20;6.40;;;10.40;97.90;;;;;;5006492;28;20707;-42
2022/03/15 02:43:07;;;;;;;11.60;6.17;;;10.40;97.90;;;;;;5007253;28;20704;-42
2022/03/15 02:45:35;;;;;;;10.27;6.47;;;10.40;97.90;;;;;;5006660;28;20225;-42
2022/03/15 02:48:05;;;;;;;12.97;6.73;;;10.40;97.90;;;;;;5005841;28;20229;-42
2022/03/15 02:50:34;;;;;;;13.37;6.73;;;10.40;97.90;;;;;;5008270;28;20224;-43
2022/03/15 02:53:03;;;;;;;12.43;6.97;;;10.30;97.90;;;;;;5006904;28;20323;-43
2022/03/15 02:55:32;;;;;;;11.77;6.37;;;10.30;97.90;;;;;;5009224;28;20300;-43
2022/03/15 02:58:02;;;;;;;10.40;6.10;;;10.30;97.90;;;;;;5007960;28;20225;-43
2022/03/15 03:00:32;;;;;;;11.03;7.03;;;10.30;97.90;;;;;;5007732;28;20376;-43
2022/03/15 03:03:04;;;;;;;11.33;6.13;;;10.30;98.00;;;;;;5009836;28;20232;-42
2022/03/15 03:05:36;;;;;;;14.07;6.80;;;10.30;98.00;;;;;;5001924;28;20218;-42
2022/03/15 03:08:04;;;;;;;9.93;6.43;;;10.30;97.90;;;;;;5007072;28;20204;-42
2022/03/15 03:10:34;;;;;;;13.07;7.00;;;10.30;97.90;;;;;;5010488;28;20850;-43
2022/03/15 03:13:05;;;;;;;12.50;6.50;;;10.30;98.00;;;;;;4989290;28;20190;-42
2022/03/15 03:15:34;;;;;;;11.40;6.20;;;10.30;98.00;;;;;;4984725;28;20591;-43
2022/03/15 03:18:04;;;;;;;12.30;6.23;;;10.20;97.90;;;;;;4992872;28;20301;-43
2022/03/15 03:20:35;;;;;;;11.27;5.53;;;10.30;98.00;;;;;;5009865;28;20212;-43
2022/03/15 03:23:04;;;;;;;10.00;5.77;;;10.30;98.00;;;;;;5002426;28;20232;-42
2022/03/15 03:25:36;;;;;;;8.33;5.13;;;10.30;98.00;;;;;;4990913;28;20217;-42
2022/03/15 03:28:05;;;;;;;9.53;5.37;;;10.30;98.00;;;;;;4991020;28;20669;-42
2022/03/15 03:30:32;;;;;;;8.83;4.67;;;10.30;98.00;;;;;;4991646;28;20640;-42
2022/03/15 03:32:59;;;;;;;6.90;4.60;;;10.30;98.00;;;;;;4988893;28;20268;-42
2022/03/15 03:35:29;;;;;;;9.13;4.77;;;10.30;97.90;;;;;;4990670;28;20206;-43
2022/03/15 03:37:57;;;;;;;11.10;4.77;;;10.30;97.90;;;;;;4990211;28;20819;-42
2022/03/15 03:40:26;;;;;;;7.20;4.40;;;10.40;98.00;;;;;;4994424;28;20218;-42
2022/03/15 03:42:56;;;;;;;9.60;4.53;;;10.40;98.00;;;;;;5004432;28;20710;-43
2022/03/15 03:45:25;;;;;;;8.02;4.20;;;10.40;98.00;;;;;;5006487;28;20210;-43
2022/03/15 03:48:00;;;;;;;6.67;4.43;;;10.40;98.00;;;;;;4992215;28;20205;-42
2022/03/15 03:50:30;;;;;;;9.40;4.63;;;10.50;98.10;;;;;;5009907;28;20209;-42
2022/03/15 03:52:59;;;;;;;8.70;5.00;;;10.50;98.10;;;;;;5009230;28;20771;-43
2022/03/15 03:55:27;;;;;;;8.23;4.63;;;10.50;98.10;;;;;;5005977;28;20201;-42
2022/03/15 03:57:56;;;;;;;11.37;5.57;;;10.50;98.10;;;;;;4996618;28;20253;-42
2022/03/15 04:00:27;;;;;;;10.63;4.90;;;10.40;98.00;;;;;;4989699;28;20680;-43
2022/03/15 04:02:57;;;;;;;12.47;5.40;;;10.50;98.10;;;;;;4989932;28;20214;-42
2022/03/15 04:05:28;;;;;;;10.75;4.80;;;10.50;98.10;;;;;;4991694;28;20229;-43
2022/03/15 04:07:59;;;;;;;9.10;5.10;;;10.50;98.10;;;;;;5008699;28;20200;-42
2022/03/15 04:10:33;;;;;;;11.77;6.00;;;10.50;98.10;;;;;;5005040;28;20201;-44
2022/03/15 04:13:02;;;;;;;7.70;5.13;;;10.50;98.10;;;;;;4991870;28;20213;-42
2022/03/15 04:15:33;;;;;;;10.67;5.57;;;10.50;98.10;;;;;;5009565;28;20232;-42
2022/03/15 04:18:00;;;;;;;9.10;5.30;;;10.50;98.10;;;;;;5003717;28;20321;-43
2022/03/15 04:20:27;;;;;;;9.57;5.13;;;10.50;98.10;;;;;;5005579;28;20589;-43
2022/03/15 04:22:57;;;;;;;8.47;5.07;;;10.50;98.10;;;;;;5008585;28;20312;-42
2022/03/15 04:25:27;;;;;;;9.83;4.70;;;10.50;98.10;;;;;;5003965;28;20237;-43
2022/03/15 04:28:00;;;;;;;8.10;4.43;;;10.50;98.20;;;;;;4995846;28;20268;-43
2022/03/15 04:30:28;;;;;;;7.73;4.13;;;10.60;98.20;;;;;;4996404;28;20235;-42
2022/03/15 04:32:58;;;;;;;7.10;3.85;;;10.60;98.50;;;;;;4988295;28;20237;-43
2022/03/15 04:35:26;;;;;;;8.38;4.03;;;10.60;98.20;;;;;;4958109;28;20186;-43
2022/03/15 04:37:56;;;;;;;7.20;4.13;;;10.60;98.20;;;;;;4997435;28;20226;-42
2022/03/15 04:40:25;;;;;;;7.13;3.50;;;10.60;98.20;;;;;;4997645;28;20210;-42
2022/03/15 04:42:54;;;;;;;8.13;4.23;;;10.60;98.20;;;;;;4989938;28;20218;-42
2022/03/15 04:45:22;;;;;;;8.97;3.50;;;10.60;98.20;;;;;;5000504;28;20300;-42
2022/03/15 04:47:49;;;;;;;8.27;3.57;;;10.60;98.20;;;;;;4989312;28;20688;-43
2022/03/15 04:50:17;;;;;;;11.37;4.20;;;10.60;98.20;;;;;;4989401;28;20210;-43
2022/03/15 04:52:44;;;;;;;7.53;4.00;;;10.60;98.30;;;;;;4999689;28;20198;-42
2022/03/15 04:55:14;;;;;;;11.93;3.90;;;10.60;98.30;;;;;;4971697;28;20584;-42
2022/03/15 04:57:44;;;;;;;5.83;3.40;;;10.60;98.30;;;;;;4989680;28;20202;-43
2022/03/15 05:00:11;;;;;;;8.30;3.20;;;10.60;98.30;;;;;;4989236;28;20301;-43
2022/03/15 05:02:44;;;;;;;6.17;3.77;;;10.60;98.30;;;;;;4990957;28;20202;-43
2022/03/15 05:05:14;;;;;;;8.47;4.00;;;10.70;98.30;;;;;;5007671;28;20225;-42
2022/03/15 05:07:42;;;;;;;7.13;3.30;;;10.70;98.30;;;;;;5003515;28;20297;-42
2022/03/15 05:12:55;;;;;;;9.17;3.60;;;10.70;98.30;;;;;;5005638;28;20617;-42
2022/03/15 05:15:23;;;;;;;8.03;3.23;;;10.70;98.40;;;;;;5003589;28;20237;-43
2022/03/15 05:17:53;;;;;;;5.43;2.90;;;10.70;98.30;;;;;;5007215;28;20245;-43
2022/03/15 05:20:20;;;;;;;7.77;3.47;;;10.70;98.40;;;;;;5008501;28;20210;-35
2022/03/15 05:22:47;;;;;;;8.20;3.33;;;10.70;98.40;;;;;;4989359;28;20292;-35
2022/03/15 05:25:15;;;;;;;8.53;3.57;;;10.70;98.30;;;;;;5004973;28;20865;-35
2022/03/15 05:27:42;;;;;;;8.97;3.53;;;10.70;98.40;;;;;;5008345;28;20296;-35
2022/03/15 05:30:12;;;;;;;7.73;3.20;;;10.70;98.40;;;;;;5007562;28;20204;-35
2022/03/15 05:32:40;;;;;;;7.70;3.10;;;10.80;98.40;;;;;;4991907;28;20681;-35
2022/03/15 05:35:09;;;;;;;7.70;3.53;;;10.80;98.40;;;;;;5007383;28;20674;-43
2022/03/15 05:37:39;;;;;;;6.43;3.60;;;10.80;98.40;;;;;;5006746;28;20205;-42
2022/03/15 05:40:07;;;;;;;8.90;3.80;;;10.80;98.40;;;;;;5007872;28;20819;-43
2022/03/15 05:42:37;;;;;;;6.97;3.13;;;10.80;98.40;;;;;;5004668;28;20527;-43
2022/03/15 05:45:05;;;;;;;8.67;3.73;;;10.80;98.40;;;;;;4988359;28;20262;-35
2022/03/15 05:47:33;;;;;;;9.43;3.37;;;10.80;98.40;;;;;;4988629;28;20194;-35
2022/03/15 05:50:00;;;;;;;7.50;3.50;;;10.80;98.40;;;;;;4988290;28;20735;-35
2022/03/15 05:52:32;;;;;;;10.30;4.10;;;10.80;98.40;;;;;;4988807;28;20214;-35
2022/03/15 05:55:02;;;;;;;9.40;3.60;;;10.80;98.40;;;;;;4995202;28;20704;-35
2022/03/15 05:57:30;;;;;;;8.90;3.50;;;10.80;98.40;;;;;;4999193;28;20404;-35
2022/03/15 05:59:59;;;;;;;8.77;3.93;;;10.80;98.50;;;;;;5003866;28;20688;-35
2022/03/15 06:02:26;;;;;;;8.73;4.10;;;10.80;98.40;;;;;;5002398;28;20666;-35
2022/03/15 06:04:54;;;;;;;8.07;3.97;;;10.80;98.50;;;;;;4989392;28;20716;-35
2022/03/15 06:07:21;;;;;;;8.10;3.80;;;10.80;98.40;;;;;;4998956;28;20269;-35
2022/03/15 06:09:52;;;;;;;7.43;4.10;;;10.80;98.50;;;;;;4994474;28;20316;-35
2022/03/15 06:12:24;;;;;;;9.50;4.30;;;10.90;98.80;;;;;;4994276;28;20212;-35
2022/03/15 06:14:52;;;;;;;8.20;4.30;;;10.90;98.50;;;;;;4980424;28;20842;-35
2022/03/15 06:17:22;;;;;;;11.10;4.00;;;10.90;98.60;;;;;;4979351;28;20312;-35
2022/03/15 06:19:51;;;;;;;12.73;4.57;;;10.80;98.50;;;;;;4987635;28;20214;-35
2022/03/15 06:22:18;;;;;;;11.93;4.60;;;10.90;98.50;;;;;;4988514;28;20216;-35
2022/03/15 06:24:48;;;;;;;8.10;4.37;;;10.80;98.50;;;;;;4990449;28;20226;-35
2022/03/15 06:27:15;;;;;;;9.40;4.67;;;10.90;98.50;;;;;;5001159;28;20205;-35
2022/03/15 06:29:46;;;;;;;14.50;5.00;;;10.90;98.50;;;;;;5011367;28;20201;-35
2022/03/15 06:32:16;;;;;;;9.50;4.17;;;10.90;98.60;;;;;;5008034;28;20229;-35
2022/03/15 06:34:49;;;;;;;12.33;4.50;;;10.90;98.60;;;;;;4991786;28;20222;-35
2022/03/15 06:37:17;;;;;;;9.87;4.40;;;10.90;98.60;;;;;;4998223;28;20717;-35
2022/03/15 06:39:44;;;;;;;7.33;3.60;;;10.90;98.60;;;;;;5005024;28;20197;-35
2022/03/15 06:42:17;;;;;;;11.93;5.13;;;10.90;98.60;;;;;;5010186;28;20332;-42
2022/03/15 06:44:45;;;;;;;9.80;4.17;;;10.90;98.60;;;;;;5007262;28;20398;-43
2022/03/15 06:47:17;;;;;;;7.37;3.87;;;10.90;98.60;;;;;;4990921;28;20680;-42
2022/03/15 06:49:47;;;;;;;6.93;4.10;;;10.90;98.70;;;;;;4994346;28;20231;-42
2022/03/15 06:52:14;;;;;;;12.97;5.23;;;10.90;98.70;;;;;;5007514;28;20583;-42
2022/03/15 06:54:41;;;;;;;9.83;4.20;;;10.90;98.70;;;;;;5010538;28;20264;-43
2022/03/15 06:57:08;;;;;;;10.10;4.70;;;10.90;98.70;;;;;;4997250;28;20822;-43
2022/03/15 06:59:36;;;;;;;10.37;4.40;;;10.90;98.70;;;;;;4996571;28;20212;-42
2022/03/15 07:02:04;;;;;;;9.33;4.60;;;10.90;98.70;;;;;;4995527;28;20209;-43
2022/03/15 07:04:33;;;;;;;9.97;4.77;;;10.90;98.70;;;;;;4998673;28;20312;-42
2022/03/15 07:07:00;;;;;;;17.13;5.20;;;11.00;98.80;;;;;;4997513;28;20233;-42
2022/03/15 07:09:27;;;;;;;14.13;4.90;;;10.90;98.70;;;;;;4992239;28;20265;-43
2022/03/15 07:11:58;;;;;;;9.30;4.60;;;10.90;98.70;;;;;;4989712;28;20208;-43
2022/03/15 07:14:28;;;;;;;12.13;5.07;;;10.90;98.70;;;;;;5002275;28;20771;-42
2022/03/15 07:17:01;;;;;;;11.60;4.83;;;11.00;98.80;;;;;;4994300;28;20225;-43
2022/03/15 07:19:31;;;;;;;17.10;6.10;;;11.00;98.80;;;;;;4998094;28;20201;-42
2022/03/15 07:22:03;;;;;;;16.83;5.47;;;11.00;98.80;;;;;;4994805;28;20205;-43
2022/03/15 07:24:32;;;;;;;15.93;5.73;;;11.10;98.80;;;;;;4990583;28;20264;-43
2022/03/15 07:27:00;;;;;;;15.93;4.40;;;11.10;98.90;;;;;;5004176;28;20760;-42
2022/03/15 07:29:27;;;;;;;12.23;4.90;;;11.10;98.90;;;;;;4997225;28;20601;-43
2022/03/15 07:31:58;;;;;;;13.73;5.23;;;11.10;98.90;;;;;;4996948;28;20217;-43
2022/03/15 07:34:26;;;;;;;17.17;5.27;;;11.20;98.90;;;;;;5004201;28;20228;-42
2022/03/15 07:36:55;;;;;;;22.47;4.93;;;11.20;99.00;;;;;;5001488;28;20299;-42
2022/03/15 07:39:25;;;;;;;13.47;5.47;;;11.20;99.00;;;;;;4991895;28;20210;-42
2022/03/15 07:41:56;;;;;;;13.97;4.70;;;11.20;99.00;;;;;;4993744;28;20202;-42
2022/03/15 07:44:28;;;;;;;10.30;4.10;;;11.20;99.00;;;;;;4979372;28;20236;-42
2022/03/15 07:46:55;;;;;;;16.27;4.23;;;11.20;99.00;;;;;;4998828;28;20697;-42
2022/03/15 07:49:22;;;;;;;11.90;5.03;;;11.30;99.00;;;;;;4997085;28;20213;-42
2022/03/15 07:51:50;;;;;;;9.17;4.47;;;11.30;99.10;;;;;;5000513;28;20252;-42
2022/03/15 07:54:20;;;;;;;6.83;3.93;;;11.30;99.10;;;;;;4996434;28;20667;-42
2022/03/15 07:56:47;;;;;;;10.17;3.90;;;11.40;99.10;;;;;;5002818;28;20221;-42
2022/03/15 07:59:20;;;;;;;9.13;4.40;;;11.40;99.10;;;;;;5002936;28;20229;-43
2022/03/15 08:01:47;;;;;;;13.23;4.47;;;11.40;99.10;;;;;;5000149;28;20245;-43
2022/03/15 08:04:15;;;;;;;16.20;4.70;;;11.40;99.10;;;;;;5003005;28;20558;-43
2022/03/15 08:06:45;;;;;;;11.27;4.03;;;11.50;99.20;;;;;;5009629;28;20293;-43
2022/03/15 08:09:14;;;;;;;8.43;4.33;;;11.50;99.20;;;;;;4992575;28;20206;-43
2022/03/15 08:11:45;;;;;;;9.53;4.37;;;11.50;99.20;;;;;;4991116;28;20297;-43
2022/03/15 08:14:18;;;;;;;9.20;4.20;;;11.50;99.20;;;;;;5004503;28;20255;-43
2022/03/15 08:16:50;;;;;;;9.97;4.27;;;11.60;99.30;;;;;;5002891;28;20199;-43
2022/03/15 08:19:17;;;;;;;10.17;4.90;;;11.60;99.30;;;;;;5006376;28;20232;-43
2022/03/15 08:21:45;;;;;;;7.03;4.00;;;11.60;99.30;;;;;;4995856;28;20253;-43
2022/03/15 08:24:16;;;;;;;7.90;3.87;;;11.70;99.30;;;;;;4974420;28;20241;-43
2022/03/15 08:26:44;;;;;;;9.43;3.93;;;11.70;99.30;;;;;;4990603;28;20241;-43
2022/03/15 08:29:11;;;;;;;7.07;4.13;;;11.80;99.40;;;;;;4989632;28;20234;-43
2022/03/15 08:31:40;;;;;;;16.20;4.00;;;11.80;99.40;;;;;;4989463;28;20272;-43
2022/03/15 08:34:10;;;;;;;8.50;3.70;;;11.80;99.40;;;;;;5003004;28;20225;-43
2022/03/15 08:36:44;;;;;;;18.30;4.93;;;11.80;99.40;;;;;;4993335;28;20225;-43
2022/03/15 08:39:11;;;;;;;11.87;4.47;;;11.90;99.50;;;;;;4998622;28;20262;-44
2022/03/15 08:41:38;;;;;;;9.20;4.00;;;11.90;99.50;;;;;;4994980;28;20760;-43
2022/03/15 08:44:08;;;;;;;11.37;4.40;;;11.90;99.50;;;;;;4990414;28;20225;-43
2022/03/15 08:46:38;;;;;;;11.33;4.27;;;11.90;99.50;;;;;;4991532;28;20301;-43
2022/03/15 08:49:08;;;;;;;10.17;4.00;;;12.00;99.60;;;;;;4991340;28;20301;-43
2022/03/15 08:51:35;;;;;;;7.77;3.93;;;12.00;99.60;;;;;;5008050;28;20271;-43
2022/03/15 08:54:05;;;;;;;9.47;3.70;;;12.00;99.60;;;;;;4995216;28;20236;-43
2022/03/15 08:56:40;;;;;;;9.33;4.67;;;12.10;99.70;;;;;;4993609;28;20755;-43
2022/03/15 08:59:15;;;;;;;10.20;4.57;;;12.10;99.70;;;;;;4996656;28;20521;-43
2022/03/15 09:01:48;;;;;;;7.40;3.70;;;12.20;99.80;;;;;;4989504;28;20237;-43
2022/03/15 09:04:18;;;;;;;11.17;3.93;;;12.20;99.80;;;;;;4990573;28;20314;-43
2022/03/15 09:06:47;;;;;;;9.13;4.10;;;12.30;99.90;;;;;;5004881;28;20198;-43
2022/03/15 09:09:21;;;;;;;9.47;4.07;;;12.30;99.90;;;;;;4988983;28;20209;-43
2022/03/15 09:11:51;;;;;;;7.60;4.23;;;12.30;99.90;;;;;;4984759;28;20209;-43
2022/03/15 09:14:18;;;;;;;7.70;4.37;;;12.40;99.90;;;;;;4997424;28;20289;-43
2022/03/15 09:16:48;;;;;;;7.30;3.97;;;12.40;99.90;;;;;;4997279;28;20190;-43
2022/03/15 09:19:18;;;;;;;5.80;3.80;;;12.40;99.90;;;;;;5006607;28;20304;-43
2022/03/15 09:21:45;;;;;;;6.00;3.70;;;12.50;99.90;;;;;;4987101;28;20535;-43
2022/03/15 09:24:13;;;;;;;6.30;4.20;;;12.50;99.90;;;;;;4975382;28;20477;-43
2022/03/15 09:26:42;;;;;;;8.07;4.50;;;12.60;99.90;;;;;;4994523;28;20203;-43
2022/03/15 09:29:12;;;;;;;10.03;5.13;;;12.60;99.90;;;;;;4989768;28;20297;-43
2022/03/15 09:31:44;;;;;;;10.13;5.40;;;12.70;99.90;;;;;;4983456;28;20710;-43
2022/03/15 09:34:21;;;;;;;13.63;5.40;;;12.70;99.90;;;;;;4999923;28;20580;-43
2022/03/15 09:36:50;;;;;;;9.90;4.57;;;12.70;99.90;;;;;;5007664;28;20210;-43
2022/03/15 09:39:18;;;;;;;8.37;4.47;;;12.80;99.90;;;;;;4996854;28;20205;-43
2022/03/15 09:41:51;;;;;;;9.60;4.20;;;12.80;99.90;;;;;;4991217;28;20633;-43
2022/03/15 09:44:22;;;;;;;7.93;4.50;;;12.90;99.90;;;;;;4988282;28;20186;-43
2022/03/15 09:46:51;;;;;;;7.40;4.30;;;12.90;99.90;;;;;;4988197;28;20759;-43
2022/03/15 09:49:26;;;;;;;8.27;4.40;;;13.00;99.90;;;;;;4998234;28;20194;-43
2022/03/15 09:51:56;;;;;;;8.38;4.65;;;13.00;99.90;;;;;;4976880;28;20608;-43
2022/03/15 09:54:27;;;;;;;10.63;4.07;;;13.00;99.90;;;;;;4996332;28;20257;-43
2022/03/15 09:56:55;;;;;;;10.33;4.00;;;13.10;99.90;;;;;;4970296;28;20218;-43
2022/03/15 09:59:24;;;;;;;10.37;4.40;;;13.10;99.90;;;;;;5006968;28;20204;-43
2022/03/15 10:01:54;;;;;;;7.72;3.95;;;13.20;99.90;;;;;;4992330;28;20206;-43
2022/03/15 10:04:23;;;;;;;16.90;9.10;;;13.20;99.90;;;;;;4980721;28;20213;-43
2022/03/15 10:06:52;;;;;;;44.80;24.90;;;13.30;99.90;;;;;;5006703;28;20312;-43
2022/03/15 10:09:21;;;;;;;32.50;19.83;;;13.30;99.90;;;;;;4991749;28;20191;-43
2022/03/15 10:11:50;;;;;;;37.38;18.33;;;13.40;99.90;;;;;;4999158;28;20259;-43
2022/03/15 10:14:20;;;;;;;26.25;9.43;;;13.40;99.90;;;;;;5006013;28;20201;-42
2022/03/15 10:16:53;;;;;;;10.60;6.30;;;13.40;99.90;;;;;;4988728;28;20288;-42
2022/03/15 10:19:25;;;;;;;9.60;5.43;;;13.50;99.90;;;;;;4991318;28;20707;-43
2022/03/15 10:21:56;;;;;;;12.10;5.63;;;13.50;99.90;;;;;;4987869;28;20314;-43
2022/03/15 10:24:29;;;;;;;10.87;5.57;;;13.50;99.90;;;;;;4970400;28;20198;-42
2022/03/15 10:27:04;;;;;;;8.40;4.10;;;13.50;99.90;;;;;;4991472;28;20202;-43
2022/03/15 10:29:34;;;;;;;7.90;3.50;;;13.60;99.90;;;;;;5003398;28;20259;-42
2022/03/15 10:32:04;;;;;;;10.20;3.87;;;13.70;99.90;;;;;;4997626;28;20237;-42
2022/03/15 10:34:34;;;;;;;9.53;3.80;;;13.70;99.90;;;;;;4994642;28;20246;-42
2022/03/15 10:37:04;;;;;;;8.20;3.67;;;13.70;99.90;;;;;;4987483;28;20206;-42
2022/03/15 10:39:33;;;;;;;6.07;3.67;;;13.80;99.90;;;;;;5000013;28;20209;-43
2022/03/15 10:42:04;;;;;;;16.70;4.67;;;13.80;99.90;;;;;;5001935;28;20224;-36
2022/03/15 10:44:35;;;;;;;4.53;1.90;;;13.80;99.90;;;;;;4985803;28;20912;-36
2022/03/15 10:47:09;;;;;;;2.60;1.30;;;13.90;99.90;;;;;;5000623;28;20204;-35
2022/03/15 10:49:49;;;;;;;4.97;0.80;;;14.00;99.90;;;;;;4993236;28;20226;-35
2022/03/15 10:52:40;;;;;;;2.40;0.97;;;14.00;99.90;;;;;;4987818;28;20190;-35
2022/03/15 10:55:28;;;;;;;1.30;0.70;;;14.10;99.90;;;;;;4994137;28;20505;-35
2022/03/15 10:58:04;;;;;;;2.80;0.77;;;14.20;99.90;;;;;;5000054;28;20201;-42
2022/03/15 11:00:37;;;;;;;2.00;0.63;;;14.20;99.90;;;;;;4992248;28;20209;-41
2022/03/15 11:03:19;;;;;;;0.90;0.70;;;14.30;99.90;;;;;;5000699;28;20202;-42
2022/03/15 11:05:49;;;;;;;1.45;0.80;;;14.30;99.90;;;;;;4980830;28;20229;-42
2022/03/15 11:08:22;;;;;;;1.10;0.60;;;14.30;99.90;;;;;;4995868;28;20232;-43
2022/03/15 11:10:54;;;;;;;2.30;0.80;;;14.40;99.90;;;;;;4994161;28;20214;-43
2022/03/15 11:13:32;;;;;;;2.27;0.77;;;14.40;99.90;;;;;;4995115;28;20208;-43
2022/03/15 11:15:59;;;;;;;2.10;0.70;;;14.50;99.90;;;;;;4995813;28;20229;-36
2022/03/15 11:18:32;;;;;;;1.43;0.80;;;14.60;99.90;;;;;;4991101;28;20264;-36
2022/03/15 11:21:01;;;;;;;1.20;0.80;;;14.60;99.90;;;;;;4999057;28;20213;-36
2022/03/15 11:23:34;;;;;;;1.60;0.80;;;14.60;99.90;;;;;;4989885;28;20214;-36
2022/03/15 11:26:06;;;;;;;2.83;1.10;;;14.70;99.90;;;;;;4992680;28;20313;-37
2022/03/15 11:28:36;;;;;;;2.55;1.00;;;14.70;99.90;;;;;;4997108;28;20285;-37
2022/03/15 11:31:06;;;;;;;2.05;0.65;;;14.80;99.90;;;;;;5004348;28;20297;-37
2022/03/15 11:33:37;;;;;;;2.60;1.13;;;14.80;99.90;;;;;;5002529;28;20308;-37
2022/03/15 11:36:05;;;;;;;6.07;0.73;;;14.90;99.90;;;;;;5003941;28;20202;-36
2022/03/15 11:38:38;;;;;;;1.15;0.80;;;14.90;99.90;;;;;;5004923;28;20245;-36
2022/03/15 11:41:05;;;;;;;2.53;0.70;;;15.00;99.90;;;;;;5001344;28;20577;-36
2022/03/15 11:43:50;;;;;;;2.05;0.82;;;15.10;99.90;;;;;;4977876;28;20214;-36
2022/03/15 11:46:28;;;;;;;1.52;1.00;;;15.10;99.90;;;;;;4998587;28;20222;-36
2022/03/15 11:49:17;;;;;;;1.10;1.00;;;15.20;99.90;;;;;;4999552;28;20639;-36
2022/03/15 11:52:02;;;;;;;2.38;1.00;;;15.20;99.90;;;;;;4998474;28;20210;-37
2022/03/15 11:54:56;;;;;;;1.95;1.05;;;15.30;99.90;;;;;;4994390;28;20865;-37
2022/03/15 11:57:38;;;;;;;1.80;1.08;;;15.40;99.90;;;;;;4994482;28;20205;-43
2022/03/15 12:00:06;;;;;;;4.88;1.20;;;15.50;99.90;;;;;;4992008;28;20244;-43
2022/03/15 12:02:41;;;;;;;1.15;0.80;;;15.50;99.90;;;;;;4991423;28;20222;-43
2022/03/15 12:05:17;;;;;;;1.20;0.70;;;15.60;99.90;;;;;;5009141;28;20231;-43
2022/03/15 12:08:12;;;;;;;1.90;0.90;;;15.60;99.90;;;;;;4976949;28;20241;-43
2022/03/15 12:10:50;;;;;;;2.05;0.90;;;15.70;99.90;;;;;;4998674;28;20206;-44
2022/03/15 12:13:43;;;;;;;2.03;0.73;;;15.70;99.90;;;;;;4997796;28;20292;-43
2022/03/15 12:16:18;;;;;;;1.63;0.68;;;15.70;99.90;;;;;;5009264;28;20682;-43
2022/03/15 12:18:48;;;;;;;1.00;0.67;;;15.80;99.90;;;;;;5008251;28;20225;-43
2022/03/15 12:21:16;;;;;;;1.95;0.80;;;15.80;99.90;;;;;;4989714;28;20240;-43
2022/03/15 12:23:48;;;;;;;0.75;0.70;;;15.90;99.90;;;;;;4981874;28;20290;-43
2022/03/15 12:26:27;;;;;;;1.23;0.95;;;15.90;99.90;;;;;;4987274;28;20800;-43
2022/03/15 12:29:14;;;;;;;1.35;0.80;;;15.90;99.90;;;;;;5002062;28;20198;-43
2022/03/15 12:31:41;;;;;;;1.40;0.55;;;16.00;99.90;;;;;;4999252;28;20198;-44
2022/03/15 12:34:28;;;;;;;1.23;0.60;;;16.00;99.90;;;;;;4999258;28;20233;-43
2022/03/15 12:37:03;;;;;;;0.50;0.40;;;16.00;99.90;;;;;;4995972;28;20222;-44
2022/03/15 12:39:33;;;;;;;0.70;0.68;;;16.00;99.90;;;;;;5002492;28;20205;-43
2022/03/15 12:42:05;;;;;;;0.93;0.60;;;16.10;99.90;;;;;;4984670;28;20272;-43
2022/03/15 12:44:49;;;;;;;0.60;0.40;;;16.20;99.90;;;;;;4994028;28;20260;-43
2022/03/15 12:47:30;;;;;;;1.17;0.50;;;16.20;99.90;;;;;;4989587;28;20205;-43
2022/03/15 12:50:21;;;;;;;0.55;0.55;;;16.30;99.90;;;;;;5002253;28;20210;-43
2022/03/15 12:52:52;;;;;;;1.30;0.80;;;16.30;99.90;;;;;;4996825;28;20601;-43
2022/03/15 12:55:25;;;;;;;2.53;0.90;;;16.30;99.90;;;;;;4999157;28;20634;-43
2022/03/15 12:57:58;;;;;;;1.65;0.70;;;16.40;99.90;;;;;;4992307;28;20198;-43
2022/03/15 13:00:27;;;;;;;2.13;0.90;;;16.40;99.90;;;;;;4993847;28;20221;-43
2022/03/15 13:02:56;;;;;;;4.03;1.10;;;16.40;99.90;;;;;;4996540;28;20313;-44